createdAt,value
2022-07-27T00:00:54.925Z,100604.38
2022-07-27T00:03:23.289Z,100605.00
2022-07-27T00:05:50.404Z,100605.34
2022-07-27T00:08:20.462Z,100606.13
2022-07-27T00:10:47.496Z,100609.47
2022-07-27T00:13:14.426Z,100618.06
2022-07-27T00:15:41.953Z,100610.38
2022-07-27T00:18:09.636Z,100612.97
2022-07-27T00:20:37.080Z,100611.91
2022-07-27T00:23:03.975Z,100615.94
2022-07-27T00:25:31.031Z,100606.06
2022-07-27T00:27:58.063Z,100615.72
2022-07-27T00:30:26.577Z,100610.47
2022-07-27T00:32:53.468Z,100616.25
2022-07-27T00:35:20.747Z,100610.25
2022-07-27T00:37:47.667Z,100602.53
2022-07-27T00:40:15.113Z,100606.91
2022-07-27T00:42:42.182Z,100610.38
2022-07-27T00:45:09.824Z,100605.66
2022-07-27T00:47:36.793Z,100613.38
2022-07-27T00:50:04.545Z,100614.56
2022-07-27T00:52:31.598Z,100620.69
2022-07-27T00:54:59.838Z,100624.19
2022-07-27T00:57:30.273Z,100623.88
2022-07-27T00:59:57.356Z,100624.63
2022-07-27T01:02:26.239Z,100620.94
2022-07-27T01:04:56.824Z,100620.63
2022-07-27T01:07:24.841Z,100623.53
2022-07-27T01:09:58.129Z,100622.22
2022-07-27T01:12:32.119Z,100616.34
2022-07-27T01:15:00.277Z,100611.72
2022-07-27T01:17:31.447Z,100612.81
2022-07-27T01:19:59.336Z,100613.03
2022-07-27T01:22:26.930Z,100618.56
2022-07-27T01:24:53.970Z,100625.13
2022-07-27T01:27:20.829Z,100630.53
2022-07-27T01:29:48.043Z,100624.22
2022-07-27T01:32:14.975Z,100634.28
2022-07-27T01:34:41.893Z,100629.47
2022-07-27T01:37:08.817Z,100629.59
2022-07-27T01:39:35.698Z,100628.91
2022-07-27T01:42:04.004Z,100613.16
2022-07-27T01:44:30.909Z,100613.38
2022-07-27T01:46:57.834Z,100614.91
2022-07-27T01:49:24.800Z,100613.03
2022-07-27T01:51:51.864Z,100615.59
2022-07-27T01:54:18.753Z,100618.13
2022-07-27T01:56:45.706Z,100622.41
2022-07-27T01:59:16.203Z,100618.75
2022-07-27T02:01:44.856Z,100624.56
2022-07-27T02:04:12.449Z,100614.06
2022-07-27T02:06:39.682Z,100619.81
2022-07-27T02:09:06.760Z,100614.69
2022-07-27T02:11:52.332Z,100616.09
2022-07-27T02:14:21.180Z,100620.84
2022-07-27T02:16:50.057Z,100612.22
2022-07-27T02:19:18.361Z,100616.09
2022-07-27T02:21:45.925Z,100609.75
2022-07-27T02:24:12.838Z,100614.91
2022-07-27T02:26:39.817Z,100609.44
2022-07-27T02:29:06.719Z,100606.75
2022-07-27T02:31:33.601Z,100610.06
2022-07-27T02:34:00.942Z,100604.59
2022-07-27T02:36:30.720Z,100592.16
2022-07-27T02:38:58.599Z,100607.38
2022-07-27T02:41:25.923Z,100602.50
2022-07-27T02:43:52.768Z,100608.41
2022-07-27T02:46:19.766Z,100604.13
2022-07-27T02:48:46.935Z,100600.56
2022-07-27T02:51:15.076Z,100611.28
2022-07-27T02:53:42.374Z,100610.56
2022-07-27T02:56:09.316Z,100605.44
2022-07-27T02:58:36.624Z,100613.31
2022-07-27T03:01:06.022Z,100615.06
2022-07-27T03:03:36.841Z,100615.69
2022-07-27T03:06:06.434Z,100604.78
2022-07-27T03:08:33.636Z,100604.06
2022-07-27T03:11:00.570Z,100604.25
2022-07-27T03:13:28.879Z,100610.03
2022-07-27T03:15:56.337Z,100607.09
2022-07-27T03:18:23.251Z,100611.84
2022-07-27T03:20:50.133Z,100609.53
2022-07-27T03:23:20.459Z,100615.44
2022-07-27T03:25:47.357Z,100609.09
2022-07-27T03:28:14.230Z,100617.44
2022-07-27T03:30:41.213Z,100616.91
2022-07-27T03:33:08.369Z,100614.16
2022-07-27T03:35:35.317Z,100618.00
2022-07-27T03:38:02.395Z,100620.19
2022-07-27T03:40:31.983Z,100620.59
2022-07-27T03:42:59.479Z,100617.19
2022-07-27T03:45:26.853Z,100615.19
2022-07-27T03:47:54.192Z,100610.69
2022-07-27T03:50:21.416Z,100624.25
2022-07-27T03:52:48.278Z,100616.06
2022-07-27T03:55:15.195Z,100617.84
2022-07-27T03:57:42.082Z,100617.00
2022-07-27T04:00:12.514Z,100612.44
2022-07-27T04:02:42.894Z,100608.38
2022-07-27T04:05:12.704Z,100612.31
2022-07-27T04:07:40.159Z,100623.16
2022-07-27T04:10:08.437Z,100626.06
2022-07-27T04:12:39.515Z,100629.66
2022-07-27T04:15:07.905Z,100634.13
2022-07-27T04:17:54.463Z,100631.38
2022-07-27T04:20:21.736Z,100632.72
2022-07-27T04:22:49.062Z,100630.06
2022-07-27T04:25:15.972Z,100622.31
2022-07-27T04:27:42.821Z,100626.34
2022-07-27T04:30:10.638Z,100631.53
2022-07-27T04:32:38.015Z,100625.19
2022-07-27T04:35:06.640Z,100621.16
2022-07-27T04:37:34.937Z,100631.16
2022-07-27T04:40:02.155Z,100638.69
2022-07-27T04:42:29.890Z,100626.47
2022-07-27T04:44:57.332Z,100630.53
2022-07-27T04:47:24.225Z,100629.66
2022-07-27T04:49:51.165Z,100630.00
2022-07-27T04:52:18.490Z,100624.88
2022-07-27T04:54:45.817Z,100639.09
2022-07-27T04:57:12.715Z,100638.25
2022-07-27T04:59:39.565Z,100642.94
2022-07-27T05:02:06.527Z,100644.47
2022-07-27T05:04:35.233Z,100646.78
2022-07-27T05:07:02.167Z,100651.63
2022-07-27T05:09:29.210Z,100651.09
2022-07-27T05:11:56.090Z,100652.00
2022-07-27T05:14:23.294Z,100663.63
2022-07-27T05:16:50.777Z,100675.53
2022-07-27T05:19:17.762Z,100680.19
2022-07-27T05:21:44.624Z,100676.25
2022-07-27T05:24:11.736Z,100679.63
2022-07-27T05:26:38.851Z,100684.03
2022-07-27T05:29:05.739Z,100683.38
2022-07-27T05:31:32.728Z,100699.34
2022-07-27T05:33:59.733Z,100699.41
2022-07-27T05:36:27.018Z,100692.34
2022-07-27T05:38:53.948Z,100697.31
2022-07-27T05:41:25.275Z,100698.66
2022-07-27T05:43:54.393Z,100693.38
2022-07-27T05:46:22.003Z,100702.75
2022-07-27T05:48:50.295Z,100699.34
2022-07-27T05:51:17.271Z,100707.66
2022-07-27T05:53:44.188Z,100707.59
2022-07-27T05:56:11.429Z,100713.75
2022-07-27T05:58:38.350Z,100710.63
2022-07-27T06:01:05.367Z,100707.63
2022-07-27T06:03:32.711Z,100712.81
2022-07-27T06:06:18.456Z,100703.47
2022-07-27T06:08:45.347Z,100709.72
2022-07-27T06:11:12.379Z,100696.97
2022-07-27T06:13:42.210Z,100694.97
2022-07-27T06:16:10.337Z,100702.56
2022-07-27T06:18:37.565Z,100705.78
2022-07-27T06:21:05.209Z,100701.19
2022-07-27T06:23:32.107Z,100704.78
2022-07-27T06:25:59.197Z,100711.84
2022-07-27T06:28:26.215Z,100713.22
2022-07-27T06:30:56.162Z,100708.88
2022-07-27T06:33:29.593Z,100706.81
2022-07-27T06:35:58.461Z,100705.50
2022-07-27T06:38:26.622Z,100709.56
2022-07-27T06:40:54.493Z,100720.03
2022-07-27T06:43:23.450Z,100726.91
2022-07-27T06:45:50.891Z,100721.72
2022-07-27T06:48:18.223Z,100729.66
2022-07-27T06:50:45.168Z,100727.44
2022-07-27T06:53:12.051Z,100727.81
2022-07-27T06:55:39.107Z,100729.88
2022-07-27T06:58:06.068Z,100731.84
2022-07-27T07:00:33.824Z,100728.91
2022-07-27T07:03:04.364Z,100732.56
2022-07-27T07:05:33.069Z,100731.44
2022-07-27T07:08:11.289Z,100725.50
2022-07-27T07:10:44.089Z,100715.06
2022-07-27T07:13:11.148Z,100720.63
2022-07-27T07:15:40.400Z,100719.94
2022-07-27T07:18:08.439Z,100712.94
2022-07-27T07:20:36.436Z,100711.53
2022-07-27T07:23:03.897Z,100722.03
2022-07-27T07:25:32.503Z,100718.19
2022-07-27T07:28:00.083Z,100721.31
2022-07-27T07:30:28.015Z,100730.56
2022-07-27T07:32:55.298Z,100724.81
2022-07-27T07:35:22.221Z,100727.53
2022-07-27T07:37:50.483Z,100728.53
2022-07-27T07:43:06.623Z,100727.50
2022-07-27T07:45:50.293Z,100733.97
2022-07-27T07:48:18.527Z,100727.94
2022-07-27T07:50:45.360Z,100731.34
2022-07-27T07:53:15.328Z,100738.56
2022-07-27T07:55:42.194Z,100733.19
2022-07-27T07:58:09.157Z,100729.19
2022-07-27T08:00:36.095Z,100729.34
2022-07-27T08:03:03.195Z,100725.66
2022-07-27T08:05:32.945Z,100730.25
2022-07-27T08:07:59.817Z,100728.88
2022-07-27T08:10:28.074Z,100724.41
2022-07-27T08:12:56.837Z,100732.84
2022-07-27T08:15:34.852Z,100733.06
2022-07-27T08:18:04.942Z,100735.91
2022-07-27T08:20:32.079Z,100744.88
2022-07-27T08:22:58.972Z,100744.91
2022-07-27T08:25:25.896Z,100751.56
2022-07-27T08:27:52.855Z,100745.72
2022-07-27T08:30:22.352Z,100739.91
2022-07-27T08:32:53.240Z,100743.72
2022-07-27T08:35:21.513Z,100750.75
2022-07-27T08:37:48.909Z,100744.34
2022-07-27T08:43:05.292Z,100740.16
2022-07-27T08:45:33.491Z,100745.66
2022-07-27T08:48:01.581Z,100755.22
2022-07-27T08:50:30.728Z,100743.16
2022-07-27T08:53:07.436Z,100727.03
2022-07-27T08:55:41.670Z,100734.97
2022-07-27T08:58:10.597Z,100740.66
2022-07-27T09:00:43.130Z,100742.25
2022-07-27T09:03:18.955Z,100747.78
2022-07-27T09:05:51.522Z,100753.06
2022-07-27T09:08:25.961Z,100736.13
2022-07-27T09:10:55.453Z,100738.19
2022-07-27T09:13:34.401Z,100741.94
2022-07-27T09:16:21.189Z,100740.06
2022-07-27T09:18:58.784Z,100740.72
2022-07-27T09:21:25.827Z,100744.22
2022-07-27T09:23:57.181Z,100743.59
2022-07-27T09:26:33.264Z,100749.66
2022-07-27T09:29:11.283Z,100752.16
2022-07-27T09:31:49.278Z,100746.59
2022-07-27T09:34:35.109Z,100742.63
2022-07-27T09:37:06.444Z,100752.53
2022-07-27T09:39:33.451Z,100749.34
2022-07-27T09:42:02.502Z,100740.81
2022-07-27T09:44:43.986Z,100743.81
2022-07-27T09:47:26.559Z,100749.63
2022-07-27T09:49:57.863Z,100748.19
2022-07-27T09:52:31.210Z,100755.53
2022-07-27T09:55:06.572Z,100741.19
2022-07-27T09:57:57.485Z,100725.88
2022-07-27T10:00:25.815Z,100737.66
2022-07-27T10:02:54.930Z,100725.91
2022-07-27T10:05:23.339Z,100722.72
2022-07-27T10:07:54.016Z,100723.97
2022-07-27T10:10:22.941Z,100724.63
2022-07-27T10:12:54.515Z,100729.75
2022-07-27T10:15:24.435Z,100741.16
2022-07-27T10:18:07.351Z,100753.13
2022-07-27T10:20:39.905Z,100747.03
2022-07-27T10:23:07.652Z,100740.16
2022-07-27T10:25:38.002Z,100740.50
2022-07-27T10:28:16.405Z,100737.50
2022-07-27T10:30:44.464Z,100732.22
2022-07-27T10:33:44.545Z,100717.75
2022-07-27T10:36:17.260Z,100736.44
2022-07-27T10:38:56.580Z,100736.91
2022-07-27T10:41:36.193Z,100737.16
2022-07-27T10:44:18.042Z,100735.13
2022-07-27T10:46:48.399Z,100739.44
2022-07-27T10:49:26.246Z,100745.91
2022-07-27T10:51:54.507Z,100743.00
2022-07-27T10:54:36.275Z,100735.69
2022-07-27T10:57:09.004Z,100734.16
2022-07-27T11:00:07.531Z,100734.63
2022-07-27T11:02:40.866Z,100738.47
2022-07-27T11:05:18.355Z,100726.50
2022-07-27T11:08:23.849Z,100731.19
2022-07-27T11:10:48.467Z,100727.25
2022-07-27T11:13:22.105Z,100720.53
2022-07-27T11:16:04.539Z,100731.28
2022-07-27T11:18:45.208Z,100718.94
2022-07-27T11:21:29.154Z,100720.34
2022-07-27T11:24:04.012Z,100715.00
2022-07-27T11:26:40.228Z,100724.41
2022-07-27T11:29:09.820Z,100722.09
2022-07-27T11:31:54.556Z,100721.72
2022-07-27T11:34:30.645Z,100713.47
2022-07-27T11:37:02.048Z,100711.44
2022-07-27T11:42:21.867Z,100716.16
2022-07-27T11:44:52.935Z,100706.13
2022-07-27T11:47:21.728Z,100712.75
2022-07-27T11:49:48.774Z,100709.44
2022-07-27T11:52:18.488Z,100713.00
2022-07-27T11:54:52.647Z,100713.72
2022-07-27T11:57:20.627Z,100712.41
2022-07-27T11:59:47.999Z,100707.75
2022-07-27T12:02:19.665Z,100703.47
2022-07-27T12:04:49.334Z,100695.25
2022-07-27T12:07:19.939Z,100710.53
2022-07-27T12:09:56.963Z,100706.38
2022-07-27T12:12:37.125Z,100698.13
2022-07-27T12:15:44.224Z,100707.44
2022-07-27T12:18:06.689Z,100697.34
2022-07-27T12:20:35.704Z,100698.63
2022-07-27T12:23:08.860Z,100688.88
2022-07-27T12:25:36.413Z,100698.09
2022-07-27T12:28:17.865Z,100701.81
2022-07-27T12:30:51.953Z,100694.69
2022-07-27T12:33:37.631Z,100693.25
2022-07-27T12:36:07.941Z,100694.75
2022-07-27T12:38:43.684Z,100695.44
2022-07-27T12:41:11.876Z,100688.31
2022-07-27T12:43:38.901Z,100683.78
2022-07-27T12:46:15.504Z,100684.94
2022-07-27T12:48:43.274Z,100689.41
2022-07-27T12:51:11.047Z,100673.69
2022-07-27T12:53:38.792Z,100673.88
2022-07-27T12:56:09.902Z,100672.00
2022-07-27T12:58:37.589Z,100681.03
2022-07-27T13:01:05.849Z,100657.22
2022-07-27T13:03:33.140Z,100661.44
2022-07-27T13:06:05.843Z,100649.25
2022-07-27T13:08:37.645Z,100645.00
2022-07-27T13:11:04.546Z,100647.75
2022-07-27T13:13:31.465Z,100636.25
2022-07-27T13:15:58.383Z,100645.88
2022-07-27T13:18:25.392Z,100646.97
2022-07-27T13:20:52.627Z,100645.31
2022-07-27T13:23:20.043Z,100647.72
2022-07-27T13:25:46.929Z,100645.06
2022-07-27T13:28:13.851Z,100644.50
2022-07-27T13:30:40.852Z,100636.25
2022-07-27T13:33:08.075Z,100639.31
2022-07-27T13:35:35.039Z,100637.94
2022-07-27T13:38:02.184Z,100633.88
2022-07-27T13:40:29.375Z,100631.00
2022-07-27T13:42:56.292Z,100637.97
2022-07-27T13:45:23.479Z,100638.44
2022-07-27T13:47:50.424Z,100630.41
2022-07-27T13:50:19.318Z,100629.75
2022-07-27T13:52:47.955Z,100625.88
2022-07-27T13:55:16.913Z,100628.16
2022-07-27T13:57:44.674Z,100628.63
2022-07-27T14:00:13.091Z,100631.88
2022-07-27T14:02:40.128Z,100641.53
2022-07-27T14:05:13.080Z,100632.28
2022-07-27T14:07:42.468Z,100645.84
2022-07-27T14:10:30.122Z,100626.06
2022-07-27T14:13:07.404Z,100634.09
2022-07-27T14:15:53.056Z,100626.47
2022-07-27T14:18:29.726Z,100622.97
2022-07-27T14:21:00.122Z,100632.47
2022-07-27T14:23:28.595Z,100616.56
2022-07-27T14:25:57.693Z,100632.59
2022-07-27T14:28:26.858Z,100635.00
2022-07-27T14:30:55.229Z,100638.56
2022-07-27T14:33:22.435Z,100642.06
2022-07-27T14:35:49.679Z,100635.53
2022-07-27T14:38:27.785Z,100643.19
2022-07-27T14:40:59.447Z,100631.66
2022-07-27T14:43:27.313Z,100635.34
2022-07-27T14:45:54.286Z,100633.00
2022-07-27T14:48:36.786Z,100639.19
2022-07-27T14:51:09.437Z,100638.16
2022-07-27T14:53:36.259Z,100633.41
2022-07-27T14:56:03.449Z,100637.72
2022-07-27T14:58:30.341Z,100623.72
2022-07-27T15:00:58.526Z,100625.16
2022-07-27T15:03:25.451Z,100621.63
2022-07-27T15:05:52.490Z,100624.84
2022-07-27T15:08:20.412Z,100622.19
2022-07-27T15:10:48.566Z,100618.06
2022-07-27T15:13:16.375Z,100610.66
2022-07-27T15:15:43.480Z,100610.06
2022-07-27T15:18:10.616Z,100606.00
2022-07-27T15:20:37.488Z,100604.94
2022-07-27T15:23:04.567Z,100606.72
2022-07-27T15:25:31.455Z,100608.56
2022-07-27T15:27:58.716Z,100599.34
2022-07-27T15:30:25.661Z,100595.22
2022-07-27T15:32:52.593Z,100597.53
2022-07-27T15:35:19.541Z,100597.31
2022-07-27T15:37:54.810Z,100597.72
2022-07-27T15:40:38.362Z,100602.22
2022-07-27T15:43:12.057Z,100592.78
2022-07-27T15:45:42.637Z,100579.63
2022-07-27T15:48:11.901Z,100589.25
2022-07-27T15:50:42.236Z,100589.88
2022-07-27T15:53:11.005Z,100595.31
2022-07-27T15:55:38.543Z,100586.22
2022-07-27T15:58:06.894Z,100586.25
2022-07-27T16:00:40.777Z,100583.31
2022-07-27T16:03:10.535Z,100583.59
2022-07-27T16:05:39.249Z,100590.00
2022-07-27T16:08:09.367Z,100589.31
2022-07-27T16:10:38.547Z,100575.31
2022-07-27T16:13:06.881Z,100572.47
2022-07-27T16:15:52.684Z,100576.59
2022-07-27T16:18:19.727Z,100576.75
2022-07-27T16:20:46.629Z,100566.28
2022-07-27T16:23:18.237Z,100570.81
2022-07-27T16:26:07.654Z,100572.91
2022-07-27T16:28:40.107Z,100567.53
2022-07-27T16:31:10.214Z,100567.75
2022-07-27T16:33:37.812Z,100565.50
2022-07-27T16:36:05.839Z,100558.94
2022-07-27T16:38:33.266Z,100562.41
2022-07-27T16:41:00.262Z,100565.25
2022-07-27T16:43:37.946Z,100549.28
2022-07-27T16:46:10.528Z,100553.78
2022-07-27T16:48:41.882Z,100548.69
2022-07-27T16:51:14.386Z,100553.97
2022-07-27T16:53:44.303Z,100546.78
2022-07-27T16:56:11.764Z,100563.28
2022-07-27T16:58:39.270Z,100560.78
2022-07-27T17:01:06.943Z,100559.41
2022-07-27T17:03:34.234Z,100549.94
2022-07-27T17:06:06.104Z,100555.06
2022-07-27T17:08:34.918Z,100555.91
2022-07-27T17:11:02.326Z,100549.31
2022-07-27T17:13:33.613Z,100560.41
2022-07-27T17:16:04.809Z,100556.53
2022-07-27T17:18:39.064Z,100553.25
2022-07-27T17:21:07.595Z,100559.63
2022-07-27T17:23:37.895Z,100559.44
2022-07-27T17:26:07.297Z,100544.63
2022-07-27T17:28:36.770Z,100552.41
2022-07-27T17:31:05.650Z,100554.44
2022-07-27T17:33:32.794Z,100552.22
2022-07-27T17:36:00.154Z,100553.44
2022-07-27T17:38:27.700Z,100562.28
2022-07-27T17:40:54.632Z,100564.56
2022-07-27T17:43:21.602Z,100560.25
2022-07-27T17:45:48.698Z,100560.41
2022-07-27T17:48:15.607Z,100555.50
2022-07-27T17:50:42.546Z,100554.47
2022-07-27T17:53:09.755Z,100555.50
2022-07-27T17:55:38.171Z,100559.63
2022-07-27T17:58:05.085Z,100555.53
2022-07-27T18:00:32.258Z,100553.91
2022-07-27T18:02:59.118Z,100552.25
2022-07-27T18:05:26.104Z,100554.06
2022-07-27T18:07:53.816Z,100555.53
2022-07-27T18:10:21.267Z,100570.53
2022-07-27T18:12:48.208Z,100557.19
2022-07-27T18:15:34.074Z,100563.13
2022-07-27T18:18:01.123Z,100569.06
2022-07-27T18:20:28.064Z,100567.84
2022-07-27T18:22:54.960Z,100573.38
2022-07-27T18:25:22.217Z,100578.13
2022-07-27T18:27:50.303Z,100580.97
2022-07-27T18:30:17.876Z,100587.53
2022-07-27T18:32:48.087Z,100584.69
2022-07-27T18:35:15.220Z,100588.78
2022-07-27T18:37:42.177Z,100591.84
2022-07-27T18:40:10.794Z,100592.06
2022-07-27T18:42:39.426Z,100592.88
2022-07-27T18:45:09.261Z,100597.97
2022-07-27T18:47:37.109Z,100595.28
2022-07-27T18:50:06.193Z,100603.91
2022-07-27T18:52:33.603Z,100605.75
2022-07-27T18:55:01.051Z,100603.44
2022-07-27T18:57:29.030Z,100598.47
2022-07-27T18:59:55.957Z,100595.19
2022-07-27T19:02:25.461Z,100601.97
2022-07-27T19:04:53.898Z,100609.97
2022-07-27T19:07:22.114Z,100607.94
2022-07-27T19:09:50.901Z,100614.06
2022-07-27T19:12:17.816Z,100615.53
2022-07-27T19:14:44.814Z,100619.38
2022-07-27T19:17:18.353Z,100624.91
2022-07-27T19:19:46.057Z,100625.88
2022-07-27T19:22:13.722Z,100630.56
2022-07-27T19:24:40.664Z,100631.44
2022-07-27T19:27:07.567Z,100625.69
2022-07-27T19:29:34.438Z,100633.69
2022-07-27T19:32:01.357Z,100643.72
2022-07-27T19:34:28.235Z,100643.06
2022-07-27T19:36:55.150Z,100642.97
2022-07-27T19:39:22.091Z,100638.84
2022-07-27T19:41:48.977Z,100644.16
2022-07-27T19:44:21.976Z,100645.31
2022-07-27T19:46:49.309Z,100651.69
2022-07-27T19:49:18.347Z,100652.69
2022-07-27T19:51:45.623Z,100647.38
2022-07-27T19:54:12.508Z,100654.09
2022-07-27T19:56:39.481Z,100655.94
2022-07-27T19:59:06.686Z,100660.06
2022-07-27T20:01:33.891Z,100653.91
2022-07-27T20:04:04.607Z,100655.94
2022-07-27T20:06:32.263Z,100657.97
2022-07-27T20:08:59.768Z,100661.78
2022-07-27T20:11:29.888Z,100670.19
2022-07-27T20:13:59.174Z,100662.09
2022-07-27T20:16:30.259Z,100659.47
2022-07-27T20:18:58.123Z,100661.84
2022-07-27T20:21:26.885Z,100657.41
2022-07-27T20:23:54.481Z,100649.09
2022-07-27T20:26:21.328Z,100648.94
2022-07-27T20:28:49.899Z,100658.94
2022-07-27T20:31:17.489Z,100660.78
2022-07-27T20:33:44.534Z,100656.00
2022-07-27T20:36:11.568Z,100657.75
2022-07-27T20:38:38.511Z,100658.59
2022-07-27T20:41:05.464Z,100671.47
2022-07-27T20:43:32.795Z,100661.66
2022-07-27T20:45:59.921Z,100671.34
2022-07-27T20:48:27.020Z,100676.09
2022-07-27T20:50:53.977Z,100675.00
2022-07-27T20:53:20.879Z,100668.28
2022-07-27T20:55:48.282Z,100665.38
2022-07-27T20:58:15.165Z,100662.16
2022-07-27T21:00:42.319Z,100665.81
2022-07-27T21:03:09.316Z,100665.81
2022-07-27T21:05:36.183Z,100669.38
2022-07-27T21:08:03.246Z,100667.84
2022-07-27T21:10:30.207Z,100666.13
2022-07-27T21:12:57.075Z,100667.56
2022-07-27T21:15:33.829Z,100667.97
2022-07-27T21:18:01.947Z,100666.50
2022-07-27T21:20:29.392Z,100672.72
2022-07-27T21:23:15.021Z,100681.72
2022-07-27T21:25:43.386Z,100670.13
2022-07-27T21:28:13.220Z,100672.69
2022-07-27T21:30:45.399Z,100667.06
2022-07-27T21:33:12.578Z,100660.59
2022-07-27T21:35:39.666Z,100664.09
2022-07-27T21:38:06.585Z,100665.59
2022-07-27T21:40:33.581Z,100676.44
2022-07-27T21:43:02.572Z,100673.50
2022-07-27T21:45:29.582Z,100671.38
2022-07-27T21:47:57.624Z,100671.38
2022-07-27T21:50:24.562Z,100673.13
2022-07-27T21:52:52.728Z,100669.38
2022-07-27T21:55:25.452Z,100675.91
2022-07-27T21:57:53.229Z,100676.25
2022-07-27T22:00:39.003Z,100674.72
2022-07-27T22:03:07.103Z,100676.75
2022-07-27T22:05:35.093Z,100680.97
2022-07-27T22:08:02.752Z,100678.84
2022-07-27T22:10:31.413Z,100674.16
2022-07-27T22:12:58.511Z,100686.72
2022-07-27T22:15:26.341Z,100676.19
2022-07-27T22:17:53.718Z,100681.06
2022-07-27T22:20:21.951Z,100687.38
2022-07-27T22:22:50.469Z,100685.00
2022-07-27T22:25:18.867Z,100685.63
2022-07-27T22:27:45.818Z,100691.31
2022-07-27T22:30:15.593Z,100695.44
2022-07-27T22:32:42.739Z,100698.19
2022-07-27T22:35:10.424Z,100692.38
2022-07-27T22:37:37.456Z,100695.34
2022-07-27T22:40:05.313Z,100679.50
2022-07-27T22:42:32.484Z,100683.78
2022-07-27T22:44:59.938Z,100688.00
2022-07-27T22:47:27.000Z,100687.34
2022-07-27T22:49:53.912Z,100691.09
2022-07-27T22:52:21.007Z,100688.22
2022-07-27T22:54:49.181Z,100688.34
2022-07-27T22:57:16.218Z,100693.59
2022-07-27T22:59:43.221Z,100688.06
2022-07-27T23:02:10.246Z,100694.16
2022-07-27T23:04:37.205Z,100685.00
2022-07-27T23:07:04.132Z,100696.00
2022-07-27T23:09:30.988Z,100694.78
2022-07-27T23:11:58.030Z,100693.06
2022-07-27T23:14:25.907Z,100688.72
2022-07-27T23:16:53.312Z,100698.69
2022-07-27T23:19:20.230Z,100687.81
2022-07-27T23:21:47.099Z,100689.19
2022-07-27T23:24:15.499Z,100690.09
2022-07-27T23:26:43.345Z,100683.50
2022-07-27T23:29:10.216Z,100682.28
2022-07-27T23:31:37.203Z,100696.53
2022-07-27T23:34:04.145Z,100687.94
2022-07-27T23:36:31.005Z,100689.47
2022-07-27T23:38:57.943Z,100690.22
2022-07-27T23:41:25.118Z,100689.81
2022-07-27T23:43:52.007Z,100685.03
2022-07-27T23:46:19.140Z,100680.19
2022-07-27T23:48:46.164Z,100683.16
2022-07-27T23:51:20.454Z,100691.69
2022-07-27T23:53:47.904Z,100690.50
2022-07-27T23:56:15.896Z,100682.38
2022-07-27T23:58:43.490Z,100687.34
